createdAt,value
2017-06-27T18:20:52.575Z,16
2017-06-27T18:21:53.204Z,28
2017-06-27T18:22:53.842Z,28
2017-06-27T18:23:54.454Z,32
2017-06-27T18:24:55.096Z,32
2017-06-27T18:25:55.727Z,32
2017-06-27T18:26:56.358Z,32
2017-06-27T18:27:56.989Z,28
2017-06-27T18:28:57.620Z,28
2017-06-27T18:29:58.255Z,28
2017-06-27T18:30:58.873Z,28
2017-06-27T18:31:59.491Z,24
2017-06-27T18:33:00.125Z,28
2017-06-27T18:34:00.757Z,24
2017-06-27T18:35:01.378Z,24
2017-06-27T18:36:02.009Z,24
2017-06-27T18:37:02.627Z,20
2017-06-27T18:38:03.268Z,20
2017-06-27T18:39:03.905Z,24
2017-06-27T18:40:04.544Z,20
2017-06-27T18:41:05.159Z,20
2017-06-27T18:42:05.793Z,20
2017-06-27T18:43:06.430Z,16
2017-06-27T18:44:07.064Z,20
2017-06-27T18:45:07.700Z,16
2017-06-27T18:46:08.338Z,16
2017-06-27T18:47:08.973Z,16
2017-06-27T18:48:09.596Z,12
2017-06-27T18:49:10.229Z,16
2017-06-27T18:50:10.850Z,16
2017-06-27T18:51:11.485Z,8
2017-06-27T18:52:12.122Z,16
2017-06-27T18:53:12.757Z,12
2017-06-27T18:54:13.394Z,12
2017-06-27T18:55:14.011Z,16
2017-06-27T18:56:14.630Z,12
2017-06-27T18:57:15.273Z,12
2017-06-27T18:58:15.931Z,12
2017-06-27T18:59:16.552Z,12
2017-06-27T19:00:17.187Z,8
2017-06-27T19:01:17.827Z,12
2017-06-27T19:02:18.444Z,12
2017-06-27T19:03:19.077Z,8
2017-06-27T19:04:19.714Z,8
2017-06-27T19:05:20.350Z,8
2017-06-27T19:06:20.964Z,8
2017-06-27T19:07:21.598Z,8
2017-06-27T19:08:22.235Z,8
2017-06-27T19:09:22.875Z,4
2017-06-27T19:10:23.508Z,4
2017-06-27T19:11:24.145Z,4
2017-06-27T19:12:24.782Z,8
2017-06-27T19:13:25.398Z,8
2017-06-27T19:14:26.033Z,4
2017-06-27T19:15:26.672Z,4
2017-06-27T19:16:27.309Z,4
2017-06-27T19:17:27.941Z,4
2017-06-27T19:18:28.582Z,4
2017-06-27T19:19:29.199Z,4
2017-06-27T19:20:29.837Z,8
2017-06-27T19:21:30.467Z,8
2017-06-27T19:22:31.098Z,4
2017-06-27T19:23:31.749Z,4
2017-06-27T19:24:32.384Z,4
2017-06-27T19:25:33.024Z,4
2017-06-27T19:26:33.664Z,4
2017-06-27T19:27:34.301Z,4
2017-06-27T19:28:34.934Z,4
2017-06-27T19:29:35.584Z,0
2017-06-27T19:30:36.224Z,0
2017-06-27T19:31:36.859Z,4
2017-06-27T19:32:37.519Z,4
2017-06-27T19:33:38.156Z,4
2017-06-27T19:34:38.794Z,4
2017-06-27T19:35:39.430Z,4
2017-06-27T19:36:40.064Z,4
2017-06-27T19:37:40.694Z,4
2017-06-27T19:38:41.328Z,4
2017-06-27T19:39:41.965Z,4
2017-06-27T19:40:42.606Z,0
2017-06-27T19:41:43.249Z,0
2017-06-27T19:42:43.936Z,0
2017-06-27T19:43:44.572Z,0
2017-06-27T19:44:45.213Z,0
2017-06-27T19:45:45.855Z,0
2017-06-27T19:46:46.487Z,0
2017-06-27T19:47:47.119Z,0
2017-06-27T19:48:47.758Z,0
2017-06-27T19:49:48.397Z,0
2017-06-27T19:50:49.030Z,0
2017-06-27T19:51:49.660Z,0
2017-06-27T19:52:50.297Z,0
